Atascocita, Texas
Current Conditions -  °F | °C
As of 3:53 AM on Wednesday 26 Nov 2014 (Local Time) from KIAH Reporting Station
Clear Clear  
Wind Chill: 48°   Ceiling: Unl
Heat Index: 48°   Visibility: 10mi
Dew Point: 38°   Wind: 3mph
Humidity: 68%   Direction: 200°SSW
Pressure: 30.2"   Gusts: NA
Location:  29.9871°N, 95.1826°W
Report Text: KIAH 260953Z 20003KT 10SM CLR 09/03 A3020 RMK AO2 SLP227 T00890033
Loading
Personal Weather Stations






























Interactive Weather Map New forecast layout! Learn more

10-Day Weather Forecast

Advertisements
Track Severe Weather on mobile